PWSweather.com
Personal Weather Stations
Station Observations
MENWDWX1
Menstrie, ScotlandGB

MenstrieScotlandGB

Lat: 56.148322, Lon: -3.85483

Elevation: 62

Station Type: Davis Vantage Pro 2

Latest ConditionsUpdated 4:35:01 PM GMT Friday, May 25, 2018
Currently Today's Max Today's Min Today's Average
Temperature 67.3°F19.6°C 73.2°F22.9°C 44.5°F6.9°C 57.1°F13.9°C
Dew Point 52.9°F11.6°C 55.3°F12.9°C 38.6°F3.7°C 46.3°F7.9°C
Winds 3.5 mph WSW5.6 kmh WSW 12.7 mph ESE20.4 kmh ESE - 3.1 mph 5.0 kmh
Wind Gusts 6.9 mph11.1 kmh 20.7 mph33.3 kmh - -
Humidity 60% 80% 41% 69%
Pressure 30.26 in1024.7 mb 30.28 in1025.4 mb 30.25 in1024.4 mb -
Hour Temp Dew Point Humidity Winds Wind Gusts Pressure Precip Precip Rate Daily Precip Total
04:35 PM 67.3°F19.6°C 52.9°F11.6°C 60% 3.5 mph WSW5.6 kmh WSW 6.9 mph11.1 kmh 30.26 in1024.7 mb - 0.00 in0.0 mm 0.00 in0.0 mm
04:30 PM 67.3°F19.6°C 52.5°F11.4°C 59% 3.5 mph WSW5.6 kmh WSW 8.1 mph13.0 kmh 30.26 in1024.7 mb - 0.00 in0.0 mm 0.00 in0.0 mm
04:25 PM 67.5°F19.7°C 53.1°F11.7°C 60% 3.5 mph W5.6 kmh W 5.8 mph9.3 kmh 30.26 in1024.7 mb - 0.00 in0.0 mm 0.00 in0.0 mm
04:20 PM 67.4°F19.7°C 53.0°F11.7°C 60% 4.6 mph SW7.4 kmh SW 6.9 mph11.1 kmh 30.26 in1024.7 mb - 0.00 in0.0 mm 0.00 in0.0 mm
04:15 PM 67.1°F19.5°C 53.6°F12.0°C 62% 3.5 mph SSW5.6 kmh SSW 4.6 mph7.4 kmh 30.26 in1024.7 mb - 0.00 in0.0 mm 0.00 in0.0 mm
04:10 PM 67.2°F19.6°C 53.7°F12.1°C 62% 3.5 mph SW5.6 kmh SW 4.6 mph7.4 kmh 30.26 in1024.7 mb - 0.00 in0.0 mm 0.00 in0.0 mm
04:05 PM 67.5°F19.7°C 53.1°F11.7°C 60% 5.8 mph SW9.3 kmh SW 10.4 mph16.7 kmh 30.25 in1024.4 mb - 0.00 in0.0 mm 0.00 in0.0 mm
04:00 PM 68.0°F20.0°C 53.6°F12.0°C 60% 3.5 mph SSE5.6 kmh SSE 9.2 mph14.8 kmh 30.25 in1024.4 mb - 0.00 in0.0 mm 0.00 in0.0 mm
03:55 PM 68.9°F20.5°C 54.0°F12.2°C 59% 6.9 mph S11.1 kmh S 11.5 mph18.5 kmh 30.25 in1024.4 mb - 0.00 in0.0 mm 0.00 in0.0 mm
03:50 PM 69.3°F20.7°C 55.3°F12.9°C 61% 3.5 mph S5.6 kmh S 8.1 mph13.0 kmh 30.25 in1024.4 mb - 0.00 in0.0 mm 0.00 in0.0 mm
03:45 PM 69.2°F20.7°C 54.3°F12.4°C 59% 3.5 mph SSW5.6 kmh SSW 8.1 mph13.0 kmh 30.25 in1024.4 mb - 0.00 in0.0 mm 0.00 in0.0 mm
03:40 PM 69.2°F20.7°C 53.8°F12.1°C 58% 4.6 mph S7.4 kmh S 5.8 mph9.3 kmh 30.26 in1024.7 mb - 0.00 in0.0 mm 0.00 in0.0 mm
03:35 PM 69.2°F20.7°C 54.3°F12.4°C 59% 4.6 mph S7.4 kmh S 5.8 mph9.3 kmh 30.26 in1024.7 mb - 0.00 in0.0 mm 0.00 in0.0 mm
03:30 PM 69.1°F20.6°C 53.7°F12.1°C 58% 3.5 mph SSE5.6 kmh SSE 4.6 mph7.4 kmh 30.26 in1024.7 mb - 0.00 in0.0 mm 0.00 in0.0 mm
03:25 PM 69.2°F20.7°C 54.3°F12.4°C 59% 3.5 mph SSE5.6 kmh SSE 3.5 mph5.6 kmh 30.26 in1024.7 mb - 0.00 in0.0 mm 0.00 in0.0 mm
03:20 PM 69.0°F20.6°C 55.0°F12.8°C 61% 2.3 mph SSW3.7 kmh SSW 3.5 mph5.6 kmh 30.26 in1024.7 mb - 0.00 in0.0 mm 0.00 in0.0 mm
03:15 PM 68.7°F20.4°C 55.1°F12.8°C 62% 2.3 mph WSW3.7 kmh WSW 8.1 mph13.0 kmh 30.26 in1024.7 mb - 0.00 in0.0 mm 0.00 in0.0 mm
03:10 PM 69.1°F20.6°C 55.1°F12.8°C 61% 3.5 mph SW5.6 kmh SW 4.6 mph7.4 kmh 30.26 in1024.7 mb - 0.00 in0.0 mm 0.00 in0.0 mm
03:05 PM 68.6°F20.3°C 54.1°F12.3°C 60% 1.2 mph S1.9 kmh S 3.5 mph5.6 kmh 30.26 in1024.7 mb - 0.00 in0.0 mm 0.00 in0.0 mm
03:00 PM 68.6°F20.3°C 55.1°F12.8°C 62% 2.3 mph WSW3.7 kmh WSW 3.5 mph5.6 kmh 30.26 in1024.7 mb - 0.00 in0.0 mm 0.00 in0.0 mm
02:55 PM 68.6°F20.3°C 54.6°F12.6°C 61% 4.6 mph SSW7.4 kmh SSW 5.8 mph9.3 kmh 30.26 in1024.7 mb - 0.00 in0.0 mm 0.00 in0.0 mm
02:50 PM 68.5°F20.3°C 54.9°F12.7°C 62% 4.6 mph SW7.4 kmh SW 9.2 mph14.8 kmh 30.26 in1024.7 mb - 0.00 in0.0 mm 0.00 in0.0 mm
02:45 PM 67.9°F19.9°C 53.5°F11.9°C 60% 3.5 mph SW5.6 kmh SW 4.6 mph7.4 kmh 30.26 in1024.7 mb - 0.00 in0.0 mm 0.00 in0.0 mm
02:40 PM 67.9°F19.9°C 53.1°F11.7°C 59% 2.3 mph S3.7 kmh S 3.5 mph5.6 kmh 30.26 in1024.7 mb - 0.00 in0.0 mm 0.00 in0.0 mm
02:35 PM 67.8°F19.9°C 53.0°F11.7°C 59% 3.5 mph S5.6 kmh S 4.6 mph7.4 kmh 30.26 in1024.7 mb - 0.00 in0.0 mm 0.00 in0.0 mm
02:30 PM 67.6°F19.8°C 52.8°F11.6°C 59% 3.5 mph S5.6 kmh S 4.6 mph7.4 kmh 30.26 in1024.7 mb - 0.00 in0.0 mm 0.00 in0.0 mm
02:25 PM 67.3°F19.6°C 52.9°F11.6°C 60% 2.3 mph S3.7 kmh S 8.1 mph13.0 kmh 30.26 in1024.7 mb - 0.00 in0.0 mm 0.00 in0.0 mm
02:20 PM 67.4°F19.7°C 52.6°F11.4°C 59% 4.6 mph S7.4 kmh S 9.2 mph14.8 kmh 30.26 in1024.7 mb - 0.00 in0.0 mm 0.00 in0.0 mm
02:15 PM 67.1°F19.5°C 52.3°F11.3°C 59% 4.6 mph S7.4 kmh S 9.2 mph14.8 kmh 30.26 in1024.7 mb - 0.00 in0.0 mm 0.00 in0.0 mm
02:10 PM 67.2°F19.6°C 51.9°F11.1°C 58% 6.9 mph SSE11.1 kmh SSE 11.5 mph18.5 kmh 30.26 in1024.7 mb - 0.00 in0.0 mm 0.00 in0.0 mm
02:05 PM 68.2°F20.1°C 51.5°F10.8°C 55% 6.9 mph SSE11.1 kmh SSE 15.0 mph24.1 kmh 30.25 in1024.4 mb - 0.00 in0.0 mm 0.00 in0.0 mm
02:00 PM 69.8°F21.0°C 51.9°F11.1°C 53% 9.2 mph SSE14.8 kmh SSE 11.5 mph18.5 kmh 30.25 in1024.4 mb - 0.00 in0.0 mm 0.00 in0.0 mm
01:55 PM 71.0°F21.7°C 52.0°F11.1°C 51% 8.1 mph SE13.0 kmh SE 13.8 mph22.2 kmh 30.25 in1024.4 mb - 0.00 in0.0 mm 0.00 in0.0 mm
01:50 PM 71.5°F21.9°C 51.9°F11.1°C 50% 10.4 mph SE16.7 kmh SE 12.7 mph20.4 kmh 30.25 in1024.4 mb - 0.00 in0.0 mm 0.00 in0.0 mm
01:45 PM 73.2°F22.9°C 52.9°F11.6°C 49% 6.9 mph SSE11.1 kmh SSE 13.8 mph22.2 kmh 30.25 in1024.4 mb - 0.00 in0.0 mm 0.00 in0.0 mm
01:40 PM 73.1°F22.8°C 51.7°F10.9°C 47% 10.4 mph SE16.7 kmh SE 17.3 mph27.8 kmh 30.25 in1024.4 mb - 0.00 in0.0 mm 0.00 in0.0 mm
01:35 PM 73.0°F22.8°C 51.0°F10.6°C 46% 8.1 mph SE13.0 kmh SE 12.7 mph20.4 kmh 30.25 in1024.4 mb - 0.00 in0.0 mm 0.00 in0.0 mm
01:30 PM 73.0°F22.8°C 51.0°F10.6°C 46% 10.4 mph SE16.7 kmh SE 18.4 mph29.6 kmh 30.25 in1024.4 mb - 0.00 in0.0 mm 0.00 in0.0 mm
01:25 PM 73.2°F22.9°C 51.2°F10.7°C 46% 12.7 mph ESE20.4 kmh ESE 17.3 mph27.8 kmh 30.25 in1024.4 mb - 0.00 in0.0 mm 0.00 in0.0 mm
01:20 PM 73.1°F22.8°C 51.1°F10.6°C 46% 10.4 mph ESE16.7 kmh ESE 15.0 mph24.1 kmh 30.25 in1024.4 mb - 0.00 in0.0 mm 0.00 in0.0 mm
01:15 PM 72.7°F22.6°C 50.7°F10.4°C 46% 8.1 mph ESE13.0 kmh ESE 13.8 mph22.2 kmh 30.25 in1024.4 mb - 0.00 in0.0 mm 0.00 in0.0 mm
01:10 PM 72.6°F22.6°C 50.0°F10.0°C 45% 11.5 mph ESE18.5 kmh ESE 13.8 mph22.2 kmh 30.25 in1024.4 mb - 0.00 in0.0 mm 0.00 in0.0 mm
01:05 PM 72.5°F22.5°C 49.4°F9.7°C 44% 12.7 mph ESE20.4 kmh ESE 17.3 mph27.8 kmh 30.25 in1024.4 mb - 0.00 in0.0 mm 0.00 in0.0 mm
01:00 PM 72.6°F22.6°C 49.4°F9.7°C 44% 11.5 mph SE18.5 kmh SE 17.3 mph27.8 kmh 30.25 in1024.4 mb - 0.00 in0.0 mm 0.00 in0.0 mm
12:55 PM 72.6°F22.6°C 49.4°F9.7°C 44% 10.4 mph SE16.7 kmh SE 19.6 mph31.5 kmh 30.25 in1024.4 mb - 0.00 in0.0 mm 0.00 in0.0 mm
12:50 PM 72.8°F22.7°C 48.4°F9.1°C 42% 10.4 mph ESE16.7 kmh ESE 20.7 mph33.3 kmh 30.25 in1024.4 mb - 0.00 in0.0 mm 0.00 in0.0 mm
12:45 PM 72.6°F22.6°C 49.4°F9.7°C 44% 9.2 mph ESE14.8 kmh ESE 16.1 mph25.9 kmh 30.25 in1024.4 mb - 0.00 in0.0 mm 0.00 in0.0 mm
12:40 PM 72.3°F22.4°C 48.5°F9.2°C 43% 8.1 mph SE13.0 kmh SE 15.0 mph24.1 kmh 30.25 in1024.4 mb - 0.00 in0.0 mm 0.00 in0.0 mm
12:35 PM 72.2°F22.3°C 48.5°F9.2°C 43% 6.9 mph SE11.1 kmh SE 15.0 mph24.1 kmh 30.25 in1024.4 mb - 0.00 in0.0 mm 0.00 in0.0 mm
12:30 PM 72.1°F22.3°C 47.7°F8.7°C 42% 10.4 mph SE16.7 kmh SE 17.3 mph27.8 kmh 30.25 in1024.4 mb - 0.00 in0.0 mm 0.00 in0.0 mm
12:25 PM 72.0°F22.2°C 47.0°F8.3°C 41% 9.2 mph ESE14.8 kmh ESE 17.3 mph27.8 kmh 30.25 in1024.4 mb - 0.00 in0.0 mm 0.00 in0.0 mm
12:20 PM 71.9°F22.2°C 46.9°F8.3°C 41% 10.4 mph SE16.7 kmh SE 12.7 mph20.4 kmh 30.25 in1024.4 mb - 0.00 in0.0 mm 0.00 in0.0 mm
12:15 PM 71.7°F22.1°C 46.7°F8.2°C 41% 11.5 mph ESE18.5 kmh ESE 12.7 mph20.4 kmh 30.25 in1024.4 mb - 0.00 in0.0 mm 0.00 in0.0 mm
12:10 PM 71.9°F22.2°C 46.9°F8.3°C 41% 9.2 mph SE14.8 kmh SE 16.1 mph25.9 kmh 30.25 in1024.4 mb - 0.00 in0.0 mm 0.00 in0.0 mm
12:05 PM 71.4°F21.9°C 50.1°F10.1°C 47% 6.9 mph ESE11.1 kmh ESE 11.5 mph18.5 kmh 30.26 in1024.7 mb - 0.00 in0.0 mm 0.00 in0.0 mm
12:00 PM 71.0°F21.7°C 49.7°F9.8°C 47% 5.8 mph SE9.3 kmh SE 9.2 mph14.8 kmh 30.25 in1024.4 mb - 0.00 in0.0 mm 0.00 in0.0 mm
11:55 AM 71.4°F21.9°C 51.3°F10.7°C 49% 8.1 mph SSE13.0 kmh SSE 10.4 mph16.7 kmh 30.25 in1024.4 mb - 0.00 in0.0 mm 0.00 in0.0 mm
11:50 AM 71.4°F21.9°C 50.7°F10.4°C 48% 8.1 mph SE13.0 kmh SE 15.0 mph24.1 kmh 30.25 in1024.4 mb - 0.00 in0.0 mm 0.00 in0.0 mm
11:45 AM 71.0°F21.7°C 49.8°F9.9°C 47% 10.4 mph SE16.7 kmh SE 11.5 mph18.5 kmh 30.25 in1024.4 mb - 0.00 in0.0 mm 0.00 in0.0 mm
11:40 AM 71.7°F22.1°C 49.8°F9.9°C 46% 11.5 mph ESE18.5 kmh ESE 11.5 mph18.5 kmh 30.25 in1024.4 mb - 0.00 in0.0 mm 0.00 in0.0 mm
11:35 AM 72.0°F22.2°C 51.3°F10.7°C 48% 8.1 mph ESE13.0 kmh ESE 11.5 mph18.5 kmh 30.25 in1024.4 mb - 0.00 in0.0 mm 0.00 in0.0 mm
11:30 AM 71.6°F22.0°C 52.0°F11.1°C 50% 8.1 mph SE13.0 kmh SE 13.8 mph22.2 kmh 30.25 in1024.4 mb - 0.00 in0.0 mm 0.00 in0.0 mm
11:25 AM 71.2°F21.8°C 53.7°F12.1°C 54% 5.8 mph SE9.3 kmh SE 8.1 mph13.0 kmh 30.25 in1024.4 mb - 0.00 in0.0 mm 0.00 in0.0 mm
11:20 AM 70.4°F21.3°C 55.3°F12.9°C 59% 1.2 mph WSW1.9 kmh WSW 3.5 mph5.6 kmh 30.25 in1024.4 mb - 0.00 in0.0 mm 0.00 in0.0 mm
11:15 AM 69.3°F20.7°C 55.2°F12.9°C 61% 2.3 mph WSW3.7 kmh WSW 3.5 mph5.6 kmh 30.25 in1024.4 mb - 0.00 in0.0 mm 0.00 in0.0 mm
11:10 AM 68.4°F20.2°C 54.4°F12.4°C 61% 3.5 mph WSW5.6 kmh WSW 6.9 mph11.1 kmh 30.26 in1024.7 mb - 0.00 in0.0 mm 0.00 in0.0 mm
11:05 AM 68.1°F20.1°C 54.1°F12.3°C 61% 1.2 mph S1.9 kmh S 3.5 mph5.6 kmh 30.26 in1024.7 mb - 0.00 in0.0 mm 0.00 in0.0 mm
11:00 AM 68.1°F20.1°C 54.2°F12.3°C 61% 2.3 mph SSW3.7 kmh SSW 4.6 mph7.4 kmh 30.26 in1024.7 mb - 0.00 in0.0 mm 0.00 in0.0 mm
10:55 AM 67.8°F19.9°C 55.2°F12.9°C 64% 1.2 mph SW1.9 kmh SW 2.3 mph3.7 kmh 30.26 in1024.7 mb - 0.00 in0.0 mm 0.00 in0.0 mm
10:50 AM 67.0°F19.4°C 54.9°F12.7°C 65% 3.5 mph SW5.6 kmh SW 4.6 mph7.4 kmh 30.26 in1024.7 mb - 0.00 in0.0 mm 0.00 in0.0 mm
10:45 AM 66.3°F19.1°C 53.7°F12.1°C 64% 1.2 mph S1.9 kmh S 4.6 mph7.4 kmh 30.26 in1024.7 mb - 0.00 in0.0 mm 0.00 in0.0 mm
10:40 AM 65.8°F18.8°C 53.3°F11.8°C 64% 2.3 mph S3.7 kmh S 3.5 mph5.6 kmh 30.26 in1024.7 mb - 0.00 in0.0 mm 0.00 in0.0 mm
10:35 AM 66.8°F19.3°C 53.8°F12.1°C 63% 3.5 mph SSW5.6 kmh SSW 5.8 mph9.3 kmh 30.26 in1024.7 mb - 0.00 in0.0 mm 0.00 in0.0 mm
10:30 AM 66.5°F19.2°C 53.9°F12.2°C 64% 3.5 mph SSW5.6 kmh SSW 3.5 mph5.6 kmh 30.26 in1024.7 mb - 0.00 in0.0 mm 0.00 in0.0 mm
10:25 AM 66.2°F19.0°C 54.1°F12.3°C 65% 2.3 mph S3.7 kmh S 3.5 mph5.6 kmh 30.26 in1024.7 mb - 0.00 in0.0 mm 0.00 in0.0 mm
10:20 AM 65.8°F18.8°C 53.7°F12.1°C 65% 2.3 mph SSW3.7 kmh SSW 4.6 mph7.4 kmh 30.26 in1024.7 mb - 0.00 in0.0 mm 0.00 in0.0 mm
10:15 AM 65.5°F18.6°C 53.0°F11.7°C 64% 2.3 mph S3.7 kmh S 3.5 mph5.6 kmh 30.26 in1024.7 mb - 0.00 in0.0 mm 0.00 in0.0 mm
10:10 AM 65.3°F18.5°C 53.2°F11.8°C 65% 2.3 mph SW3.7 kmh SW 3.5 mph5.6 kmh 30.26 in1024.7 mb - 0.00 in0.0 mm 0.00 in0.0 mm
10:05 AM 65.2°F18.4°C 53.1°F11.7°C 65% 2.3 mph WSW3.7 kmh WSW 3.5 mph5.6 kmh 30.27 in1025.1 mb - 0.00 in0.0 mm 0.00 in0.0 mm
10:00 AM 64.5°F18.1°C 53.3°F11.8°C 67% 2.3 mph W3.7 kmh W 3.5 mph5.6 kmh 30.27 in1025.1 mb - 0.00 in0.0 mm 0.00 in0.0 mm
09:55 AM 63.8°F17.7°C 53.4°F11.9°C 69% 2.3 mph SW3.7 kmh SW 3.5 mph5.6 kmh 30.27 in1025.1 mb - 0.00 in0.0 mm 0.00 in0.0 mm
09:50 AM 63.0°F17.2°C 52.3°F11.3°C 68% 2.3 mph S3.7 kmh S 3.5 mph5.6 kmh 30.27 in1025.1 mb - 0.00 in0.0 mm 0.00 in0.0 mm
09:45 AM 62.9°F17.2°C 52.1°F11.2°C 68% 1.2 mph S1.9 kmh S 3.5 mph5.6 kmh 30.27 in1025.1 mb - 0.00 in0.0 mm 0.00 in0.0 mm
09:40 AM 62.8°F17.1°C 51.7°F10.9°C 67% 1.2 mph S1.9 kmh S 2.3 mph3.7 kmh 30.27 in1025.1 mb - 0.00 in0.0 mm 0.00 in0.0 mm
09:35 AM 62.5°F16.9°C 51.8°F11.0°C 68% 2.3 mph S3.7 kmh S 3.5 mph5.6 kmh 30.27 in1025.1 mb - 0.00 in0.0 mm 0.00 in0.0 mm
09:30 AM 62.2°F16.8°C 51.9°F11.1°C 69% 1.2 mph SW1.9 kmh SW 2.3 mph3.7 kmh 30.27 in1025.1 mb - 0.00 in0.0 mm 0.00 in0.0 mm
09:25 AM 61.3°F16.3°C 51.4°F10.8°C 70% 2.3 mph WSW3.7 kmh WSW 3.5 mph5.6 kmh 30.27 in1025.1 mb - 0.00 in0.0 mm 0.00 in0.0 mm
09:20 AM 60.9°F16.1°C 51.0°F10.6°C 70% 2.3 mph WSW3.7 kmh WSW 3.5 mph5.6 kmh 30.27 in1025.1 mb - 0.00 in0.0 mm 0.00 in0.0 mm
09:15 AM 59.8°F15.4°C 50.0°F10.0°C 70% 1.2 mph WSW1.9 kmh WSW 2.3 mph3.7 kmh 30.27 in1025.1 mb - 0.00 in0.0 mm 0.00 in0.0 mm
09:10 AM 59.1°F15.1°C 50.0°F10.0°C 72% 1.2 mph WSW1.9 kmh WSW 1.2 mph1.9 kmh 30.27 in1025.1 mb - 0.00 in0.0 mm 0.00 in0.0 mm
09:05 AM 58.1°F14.5°C 49.5°F9.7°C 73% 1.2 mph SW1.9 kmh SW 3.5 mph5.6 kmh 30.27 in1025.1 mb - 0.00 in0.0 mm 0.00 in0.0 mm
09:00 AM 57.7°F14.3°C 49.1°F9.5°C 73% 1.2 mph SW1.9 kmh SW 3.5 mph5.6 kmh 30.28 in1025.4 mb - 0.00 in0.0 mm 0.00 in0.0 mm
08:55 AM 57.7°F14.3°C 49.1°F9.5°C 73% 1.2 mph SW1.9 kmh SW 3.5 mph5.6 kmh 30.28 in1025.4 mb - 0.00 in0.0 mm 0.00 in0.0 mm
08:50 AM 56.9°F13.8°C 49.1°F9.5°C 75% 2.3 mph WSW3.7 kmh WSW 3.5 mph5.6 kmh 30.28 in1025.4 mb - 0.00 in0.0 mm 0.00 in0.0 mm
08:45 AM 55.8°F13.2°C 48.4°F9.1°C 76% 1.2 mph WSW1.9 kmh WSW 3.5 mph5.6 kmh 30.28 in1025.4 mb - 0.00 in0.0 mm 0.00 in0.0 mm
08:40 AM 55.4°F13.0°C 48.0°F8.9°C 76% 1.2 mph WSW1.9 kmh WSW 2.3 mph3.7 kmh 30.28 in1025.4 mb - 0.00 in0.0 mm 0.00 in0.0 mm
08:35 AM 55.3°F12.9°C 47.8°F8.8°C 76% 1.2 mph WSW1.9 kmh WSW 3.5 mph5.6 kmh 30.28 in1025.4 mb - 0.00 in0.0 mm 0.00 in0.0 mm
08:30 AM 55.3°F12.9°C 47.9°F8.8°C 76% Calm Calm 1.2 mph1.9 kmh 30.28 in1025.4 mb - 0.00 in0.0 mm 0.00 in0.0 mm
08:25 AM 55.3°F12.9°C 48.2°F9.0°C 77% 2.3 mph WSW3.7 kmh WSW 3.5 mph5.6 kmh 30.28 in1025.4 mb - 0.00 in0.0 mm 0.00 in0.0 mm
08:20 AM 54.3°F12.4°C 47.2°F8.4°C 77% 2.3 mph WSW3.7 kmh WSW 3.5 mph5.6 kmh 30.28 in1025.4 mb - 0.00 in0.0 mm 0.00 in0.0 mm
08:15 AM 53.8°F12.1°C 46.8°F8.2°C 77% 2.3 mph SW3.7 kmh SW 3.5 mph5.6 kmh 30.28 in1025.4 mb - 0.00 in0.0 mm 0.00 in0.0 mm
08:10 AM 53.1°F11.7°C 46.1°F7.8°C 77% 1.2 mph SW1.9 kmh SW 3.5 mph5.6 kmh 30.28 in1025.4 mb - 0.00 in0.0 mm 0.00 in0.0 mm
08:05 AM 52.4°F11.3°C 45.4°F7.4°C 77% Calm Calm -- 30.28 in1025.4 mb - 0.00 in0.0 mm 0.00 in0.0 mm
08:00 AM 51.8°F11.0°C 45.1°F7.3°C 78% 2.3 mph WSW3.7 kmh WSW 3.5 mph5.6 kmh 30.28 in1025.4 mb - 0.00 in0.0 mm 0.00 in0.0 mm
07:55 AM 51.2°F10.7°C 44.2°F6.8°C 77% 2.3 mph SW3.7 kmh SW 3.5 mph5.6 kmh 30.28 in1025.4 mb - 0.00 in0.0 mm 0.00 in0.0 mm
07:50 AM 51.1°F10.6°C 44.5°F6.9°C 78% 2.3 mph WSW3.7 kmh WSW 2.3 mph3.7 kmh 30.28 in1025.4 mb - 0.00 in0.0 mm 0.00 in0.0 mm
07:45 AM 50.8°F10.4°C 43.8°F6.6°C 77% 1.2 mph SW1.9 kmh SW 3.5 mph5.6 kmh 30.28 in1025.4 mb - 0.00 in0.0 mm 0.00 in0.0 mm
07:40 AM 49.8°F9.9°C 43.2°F6.2°C 78% Calm Calm -- 30.28 in1025.4 mb - 0.00 in0.0 mm 0.00 in0.0 mm
07:35 AM 49.2°F9.6°C 42.6°F5.9°C 78% Calm Calm -- 30.28 in1025.4 mb - 0.00 in0.0 mm 0.00 in0.0 mm
07:30 AM 48.8°F9.3°C 42.6°F5.9°C 79% Calm Calm -- 30.28 in1025.4 mb - 0.00 in0.0 mm 0.00 in0.0 mm
07:25 AM 48.6°F9.2°C 42.4°F5.8°C 79% Calm Calm -- 30.28 in1025.4 mb - 0.00 in0.0 mm 0.00 in0.0 mm
07:20 AM 48.4°F9.1°C 42.1°F5.6°C 79% 1.2 mph SW1.9 kmh SW 2.3 mph3.7 kmh 30.28 in1025.4 mb - 0.00 in0.0 mm 0.00 in0.0 mm
07:15 AM 47.9°F8.8°C 41.7°F5.4°C 79% 1.2 mph SW1.9 kmh SW 3.5 mph5.6 kmh 30.28 in1025.4 mb - 0.00 in0.0 mm 0.00 in0.0 mm
07:10 AM 47.7°F8.7°C 41.5°F5.3°C 79% 1.2 mph SW1.9 kmh SW 1.2 mph1.9 kmh 30.28 in1025.4 mb - 0.00 in0.0 mm 0.00 in0.0 mm
07:05 AM 47.6°F8.7°C 41.4°F5.2°C 79% 1.2 mph SW1.9 kmh SW 2.3 mph3.7 kmh 30.28 in1025.4 mb - 0.00 in0.0 mm 0.00 in0.0 mm
07:00 AM 47.4°F8.6°C 41.2°F5.1°C 79% 1.2 mph SW1.9 kmh SW 1.2 mph1.9 kmh 30.28 in1025.4 mb - 0.00 in0.0 mm 0.00 in0.0 mm
06:55 AM 47.3°F8.5°C 41.5°F5.3°C 80% 1.2 mph SW1.9 kmh SW 3.5 mph5.6 kmh 30.27 in1025.1 mb - 0.00 in0.0 mm 0.00 in0.0 mm
06:50 AM 47.3°F8.5°C 41.4°F5.2°C 80% 1.2 mph N1.9 kmh N 2.3 mph3.7 kmh 30.27 in1025.1 mb - 0.00 in0.0 mm 0.00 in0.0 mm
06:45 AM 47.2°F8.4°C 41.3°F5.2°C 80% 1.2 mph N1.9 kmh N 2.3 mph3.7 kmh 30.27 in1025.1 mb - 0.00 in0.0 mm 0.00 in0.0 mm
06:40 AM 47.1°F8.4°C 41.2°F5.1°C 80% Calm Calm -- 30.27 in1025.1 mb - 0.00 in0.0 mm 0.00 in0.0 mm
06:35 AM 47.0°F8.3°C 41.1°F5.1°C 80% Calm Calm 2.3 mph3.7 kmh 30.27 in1025.1 mb - 0.00 in0.0 mm 0.00 in0.0 mm
06:30 AM 47.0°F8.3°C 41.1°F5.1°C 80% 1.2 mph N1.9 kmh N 2.3 mph3.7 kmh 30.27 in1025.1 mb - 0.00 in0.0 mm 0.00 in0.0 mm
06:25 AM 46.9°F8.3°C 41.1°F5.1°C 80% Calm Calm -- 30.27 in1025.1 mb - 0.00 in0.0 mm 0.00 in0.0 mm
06:20 AM 46.7°F8.2°C 40.9°F4.9°C 80% Calm Calm -- 30.27 in1025.1 mb - 0.00 in0.0 mm 0.00 in0.0 mm
06:15 AM 46.8°F8.2°C 41.0°F5.0°C 80% Calm Calm -- 30.27 in1025.1 mb - 0.00 in0.0 mm 0.00 in0.0 mm
06:10 AM 46.7°F8.2°C 40.9°F4.9°C 80% Calm Calm -- 30.27 in1025.1 mb - 0.00 in0.0 mm 0.00 in0.0 mm
06:05 AM 46.7°F8.2°C 40.9°F4.9°C 80% Calm Calm -- 30.26 in1024.7 mb - 0.00 in0.0 mm 0.00 in0.0 mm
06:00 AM 46.5°F8.1°C 40.7°F4.8°C 80% 1.2 mph N1.9 kmh N 2.3 mph3.7 kmh 30.26 in1024.7 mb - 0.00 in0.0 mm 0.00 in0.0 mm
05:55 AM 46.4°F8.0°C 40.6°F4.8°C 80% Calm Calm -- 30.26 in1024.7 mb - 0.00 in0.0 mm 0.00 in0.0 mm
05:50 AM 46.3°F7.9°C 40.5°F4.7°C 80% Calm Calm -- 30.26 in1024.7 mb - 0.00 in0.0 mm 0.00 in0.0 mm
05:45 AM 46.3°F7.9°C 40.4°F4.7°C 80% Calm Calm -- 30.26 in1024.7 mb - 0.00 in0.0 mm 0.00 in0.0 mm
05:40 AM 46.2°F7.9°C 40.3°F4.6°C 80% 2.3 mph N3.7 kmh N 3.5 mph5.6 kmh 30.26 in1024.7 mb - 0.00 in0.0 mm 0.00 in0.0 mm
05:35 AM 46.1°F7.8°C 40.3°F4.6°C 80% 2.3 mph N3.7 kmh N 3.5 mph5.6 kmh 30.26 in1024.7 mb - 0.00 in0.0 mm 0.00 in0.0 mm
05:30 AM 46.0°F7.8°C 40.2°F4.6°C 80% 2.3 mph N3.7 kmh N 3.5 mph5.6 kmh 30.26 in1024.7 mb - 0.00 in0.0 mm 0.00 in0.0 mm
05:25 AM 45.8°F7.7°C 40.0°F4.4°C 80% Calm Calm 1.2 mph1.9 kmh 30.27 in1025.1 mb - 0.00 in0.0 mm 0.00 in0.0 mm
05:20 AM 45.6°F7.6°C 39.8°F4.3°C 80% Calm Calm -- 30.27 in1025.1 mb - 0.00 in0.0 mm 0.00 in0.0 mm
05:15 AM 45.5°F7.5°C 39.7°F4.3°C 80% Calm Calm 1.2 mph1.9 kmh 30.27 in1025.1 mb - 0.00 in0.0 mm 0.00 in0.0 mm
05:10 AM 45.5°F7.5°C 39.7°F4.3°C 80% 1.2 mph N1.9 kmh N 2.3 mph3.7 kmh 30.26 in1024.7 mb - 0.00 in0.0 mm 0.00 in0.0 mm
05:05 AM 45.5°F7.5°C 39.7°F4.3°C 80% 2.3 mph N3.7 kmh N 3.5 mph5.6 kmh 30.26 in1024.7 mb - 0.00 in0.0 mm 0.00 in0.0 mm
05:00 AM 45.4°F7.4°C 39.6°F4.2°C 80% 2.3 mph N3.7 kmh N 3.5 mph5.6 kmh 30.26 in1024.7 mb - 0.00 in0.0 mm 0.00 in0.0 mm
04:55 AM 45.4°F7.4°C 39.6°F4.2°C 80% 2.3 mph N3.7 kmh N 3.5 mph5.6 kmh 30.26 in1024.7 mb - 0.00 in0.0 mm 0.00 in0.0 mm
04:50 AM 45.4°F7.4°C 39.6°F4.2°C 80% 1.2 mph N1.9 kmh N 3.5 mph5.6 kmh 30.26 in1024.7 mb - 0.00 in0.0 mm 0.00 in0.0 mm
04:45 AM 45.4°F7.4°C 39.6°F4.2°C 80% 1.2 mph N1.9 kmh N 2.3 mph3.7 kmh 30.27 in1025.1 mb - 0.00 in0.0 mm 0.00 in0.0 mm
04:40 AM 45.3°F7.4°C 39.5°F4.2°C 80% 1.2 mph N1.9 kmh N 3.5 mph5.6 kmh 30.27 in1025.1 mb - 0.00 in0.0 mm 0.00 in0.0 mm
04:35 AM 45.4°F7.4°C 39.6°F4.2°C 80% 2.3 mph N3.7 kmh N 3.5 mph5.6 kmh 30.27 in1025.1 mb - 0.00 in0.0 mm 0.00 in0.0 mm
04:30 AM 45.2°F7.3°C 39.4°F4.1°C 80% Calm Calm -- 30.26 in1024.7 mb - 0.00 in0.0 mm 0.00 in0.0 mm
04:25 AM 45.0°F7.2°C 39.2°F4.0°C 80% 1.2 mph N1.9 kmh N 2.3 mph3.7 kmh 30.26 in1024.7 mb - 0.00 in0.0 mm 0.00 in0.0 mm
04:20 AM 44.9°F7.2°C 39.1°F3.9°C 80% 2.3 mph N3.7 kmh N 3.5 mph5.6 kmh 30.26 in1024.7 mb - 0.00 in0.0 mm 0.00 in0.0 mm
04:15 AM 44.8°F7.1°C 39.0°F3.9°C 80% 2.3 mph N3.7 kmh N 3.5 mph5.6 kmh 30.26 in1024.7 mb - 0.00 in0.0 mm 0.00 in0.0 mm
04:10 AM 44.7°F7.1°C 38.9°F3.8°C 80% 1.2 mph N1.9 kmh N 3.5 mph5.6 kmh 30.26 in1024.7 mb - 0.00 in0.0 mm 0.00 in0.0 mm
04:05 AM 44.6°F7.0°C 38.9°F3.8°C 80% 3.5 mph N5.6 kmh N 3.5 mph5.6 kmh 30.26 in1024.7 mb - 0.00 in0.0 mm 0.00 in0.0 mm
04:00 AM 44.6°F7.0°C 38.8°F3.8°C 80% 3.5 mph N5.6 kmh N 4.6 mph7.4 kmh 30.26 in1024.7 mb - 0.00 in0.0 mm 0.00 in0.0 mm
03:55 AM 44.5°F6.9°C 38.7°F3.7°C 80% 2.3 mph NNW3.7 kmh NNW 3.5 mph5.6 kmh 30.26 in1024.7 mb - 0.00 in0.0 mm 0.00 in0.0 mm
03:50 AM 44.5°F6.9°C 38.7°F3.7°C 80% 3.5 mph N5.6 kmh N 3.5 mph5.6 kmh 30.26 in1024.7 mb - 0.00 in0.0 mm 0.00 in0.0 mm
03:45 AM 44.6°F7.0°C 38.8°F3.8°C 80% 2.3 mph N3.7 kmh N 3.5 mph5.6 kmh 30.26 in1024.7 mb - 0.00 in0.0 mm 0.00 in0.0 mm
03:40 AM 44.7°F7.1°C 38.6°F3.7°C 79% 1.2 mph N1.9 kmh N 4.6 mph7.4 kmh 30.26 in1024.7 mb - 0.00 in0.0 mm 0.00 in0.0 mm
03:35 AM 44.8°F7.1°C 38.7°F3.7°C 79% 3.5 mph N5.6 kmh N 3.5 mph5.6 kmh 30.26 in1024.7 mb - 0.00 in0.0 mm 0.00 in0.0 mm
03:30 AM 45.0°F7.2°C 38.9°F3.8°C 79% 2.3 mph N3.7 kmh N 3.5 mph5.6 kmh 30.26 in1024.7 mb - 0.00 in0.0 mm 0.00 in0.0 mm
03:25 AM 45.3°F7.4°C 39.1°F3.9°C 79% 3.5 mph NNW5.6 kmh NNW 4.6 mph7.4 kmh 30.26 in1024.7 mb - 0.00 in0.0 mm 0.00 in0.0 mm
03:20 AM 45.6°F7.6°C 39.5°F4.2°C 79% 2.3 mph N3.7 kmh N 4.6 mph7.4 kmh 30.26 in1024.7 mb - 0.00 in0.0 mm 0.00 in0.0 mm
03:15 AM 45.7°F7.6°C 39.6°F4.2°C 79% 2.3 mph N3.7 kmh N 3.5 mph5.6 kmh 30.26 in1024.7 mb - 0.00 in0.0 mm 0.00 in0.0 mm
03:10 AM 45.9°F7.7°C 39.8°F4.3°C 79% 2.3 mph N3.7 kmh N 3.5 mph5.6 kmh 30.26 in1024.7 mb - 0.00 in0.0 mm 0.00 in0.0 mm
03:05 AM 46.1°F7.8°C 39.9°F4.4°C 79% 2.3 mph N3.7 kmh N 3.5 mph5.6 kmh 30.26 in1024.7 mb - 0.00 in0.0 mm 0.00 in0.0 mm
03:00 AM 46.1°F7.8°C 39.9°F4.4°C 79% 3.5 mph NW5.6 kmh NW 4.6 mph7.4 kmh 30.26 in1024.7 mb - 0.00 in0.0 mm 0.00 in0.0 mm
02:55 AM 46.0°F7.8°C 39.9°F4.4°C 79% Calm Calm -- 30.26 in1024.7 mb - 0.00 in0.0 mm 0.00 in0.0 mm
02:50 AM 46.1°F7.8°C 39.9°F4.4°C 79% Calm Calm 1.2 mph1.9 kmh 30.26 in1024.7 mb - 0.00 in0.0 mm 0.00 in0.0 mm
02:45 AM 46.3°F7.9°C 40.1°F4.5°C 79% 3.5 mph N5.6 kmh N 3.5 mph5.6 kmh 30.26 in1024.7 mb - 0.00 in0.0 mm 0.00 in0.0 mm
02:40 AM 46.4°F8.0°C 40.2°F4.6°C 79% 1.2 mph NNW1.9 kmh NNW 2.3 mph3.7 kmh 30.26 in1024.7 mb - 0.00 in0.0 mm 0.00 in0.0 mm
02:35 AM 46.3°F7.9°C 40.1°F4.5°C 79% Calm Calm 1.2 mph1.9 kmh 30.26 in1024.7 mb - 0.00 in0.0 mm 0.00 in0.0 mm
02:30 AM 46.2°F7.9°C 40.0°F4.4°C 79% Calm Calm -- 30.26 in1024.7 mb - 0.00 in0.0 mm 0.00 in0.0 mm
02:25 AM 46.1°F7.8°C 40.0°F4.4°C 79% 1.2 mph N1.9 kmh N 2.3 mph3.7 kmh 30.26 in1024.7 mb - 0.00 in0.0 mm 0.00 in0.0 mm
02:20 AM 46.1°F7.8°C 39.9°F4.4°C 79% 1.2 mph N1.9 kmh N 3.5 mph5.6 kmh 30.26 in1024.7 mb - 0.00 in0.0 mm 0.00 in0.0 mm
02:15 AM 46.1°F7.8°C 39.9°F4.4°C 79% 2.3 mph NNE3.7 kmh NNE 3.5 mph5.6 kmh 30.26 in1024.7 mb - 0.00 in0.0 mm 0.00 in0.0 mm
02:10 AM 46.3°F7.9°C 40.1°F4.5°C 79% 2.3 mph NNE3.7 kmh NNE 3.5 mph5.6 kmh 30.26 in1024.7 mb - 0.00 in0.0 mm 0.00 in0.0 mm
02:05 AM 46.4°F8.0°C 40.2°F4.6°C 79% 1.2 mph N1.9 kmh N 2.3 mph3.7 kmh 30.26 in1024.7 mb - 0.00 in0.0 mm 0.00 in0.0 mm
02:00 AM 46.5°F8.1°C 40.3°F4.6°C 79% Calm Calm -- 30.26 in1024.7 mb - 0.00 in0.0 mm 0.00 in0.0 mm
01:55 AM 46.6°F8.1°C 40.4°F4.7°C 79% Calm Calm -- 30.26 in1024.7 mb - 0.00 in0.0 mm 0.00 in0.0 mm
01:50 AM 46.7°F8.2°C 40.5°F4.7°C 79% 1.2 mph N1.9 kmh N 3.5 mph5.6 kmh 30.26 in1024.7 mb - 0.00 in0.0 mm 0.00 in0.0 mm
01:45 AM 46.6°F8.1°C 40.4°F4.7°C 79% Calm Calm -- 30.26 in1024.7 mb - 0.00 in0.0 mm 0.00 in0.0 mm
01:40 AM 46.6°F8.1°C 40.4°F4.7°C 79% Calm Calm -- 30.26 in1024.7 mb - 0.00 in0.0 mm 0.00 in0.0 mm
01:35 AM 46.6°F8.1°C 40.4°F4.7°C 79% 1.2 mph N1.9 kmh N 1.2 mph1.9 kmh 30.26 in1024.7 mb - 0.00 in0.0 mm 0.00 in0.0 mm
01:30 AM 46.7°F8.2°C 40.5°F4.7°C 79% 2.3 mph N3.7 kmh N 3.5 mph5.6 kmh 30.26 in1024.7 mb - 0.00 in0.0 mm 0.00 in0.0 mm
01:25 AM 46.8°F8.2°C 40.3°F4.6°C 78% 2.3 mph NNE3.7 kmh NNE 3.5 mph5.6 kmh 30.26 in1024.7 mb - 0.00 in0.0 mm 0.00 in0.0 mm
01:20 AM 47.0°F8.3°C 40.5°F4.7°C 78% 2.3 mph NNE3.7 kmh NNE 3.5 mph5.6 kmh 30.26 in1024.7 mb - 0.00 in0.0 mm 0.00 in0.0 mm
01:15 AM 47.0°F8.3°C 40.5°F4.7°C 78% 1.2 mph NE1.9 kmh NE 3.5 mph5.6 kmh 30.26 in1024.7 mb - 0.00 in0.0 mm 0.00 in0.0 mm
01:10 AM 47.2°F8.4°C 40.7°F4.8°C 78% 2.3 mph N3.7 kmh N 3.5 mph5.6 kmh 30.26 in1024.7 mb - 0.00 in0.0 mm 0.00 in0.0 mm
01:05 AM 47.3°F8.5°C 40.8°F4.9°C 78% 1.2 mph WSW1.9 kmh WSW 2.3 mph3.7 kmh 30.26 in1024.7 mb - 0.00 in0.0 mm 0.00 in0.0 mm
01:00 AM 47.4°F8.6°C 40.9°F4.9°C 78% 1.2 mph SW1.9 kmh SW 2.3 mph3.7 kmh 30.26 in1024.7 mb - 0.00 in0.0 mm 0.00 in0.0 mm
12:55 AM 47.4°F8.6°C 40.9°F4.9°C 78% Calm Calm -- 30.26 in1024.7 mb - 0.00 in0.0 mm 0.00 in0.0 mm
12:50 AM 47.4°F8.6°C 40.9°F4.9°C 78% Calm Calm 1.2 mph1.9 kmh 30.26 in1024.7 mb - 0.00 in0.0 mm 0.00 in0.0 mm
12:45 AM 47.5°F8.6°C 41.0°F5.0°C 78% 2.3 mph NW3.7 kmh NW 3.5 mph5.6 kmh 30.26 in1024.7 mb - 0.00 in0.0 mm 0.00 in0.0 mm
12:40 AM 47.7°F8.7°C 41.2°F5.1°C 78% 1.2 mph WNW1.9 kmh WNW 3.5 mph5.6 kmh 30.26 in1024.7 mb - 0.00 in0.0 mm 0.00 in0.0 mm
12:35 AM 47.7°F8.7°C 41.2°F5.1°C 78% Calm Calm 1.2 mph1.9 kmh 30.26 in1024.7 mb - 0.00 in0.0 mm 0.00 in0.0 mm
12:30 AM 47.7°F8.7°C 41.2°F5.1°C 78% 1.2 mph WSW1.9 kmh WSW 2.3 mph3.7 kmh 30.26 in1024.7 mb - 0.00 in0.0 mm 0.00 in0.0 mm
12:25 AM 47.8°F8.8°C 41.3°F5.2°C 78% Calm Calm 1.2 mph1.9 kmh 30.26 in1024.7 mb - 0.00 in0.0 mm 0.00 in0.0 mm
12:20 AM 47.9°F8.8°C 41.3°F5.2°C 78% Calm Calm 1.2 mph1.9 kmh 30.26 in1024.7 mb - 0.00 in0.0 mm 0.00 in0.0 mm
12:15 AM 48.0°F8.9°C 41.5°F5.3°C 78% 1.2 mph W1.9 kmh W 2.3 mph3.7 kmh 30.26 in1024.7 mb - 0.00 in0.0 mm 0.00 in0.0 mm
12:10 AM 47.9°F8.8°C 41.4°F5.2°C 78% 1.2 mph W1.9 kmh W 2.3 mph3.7 kmh 30.26 in1024.7 mb - 0.00 in0.0 mm 0.00 in0.0 mm
12:05 AM 47.9°F8.8°C 41.4°F5.2°C 78% Calm Calm -- 30.26 in1024.7 mb - 0.00 in0.0 mm 0.00 in0.0 mm
12:00 AM 47.9°F8.8°C 41.4°F5.2°C 78% Calm Calm -- 30.26 in1024.7 mb - 0.00 in0.0 mm 0.00 in0.0 mm